Time;durP1;ratioP1;P1;durP2;ratioP2;P2;SDS_P1;SDS_P2;PMS_P1;PMS_P2;Temp;Humidity;BMP_temperature;BMP_pressure;BME280_temperature;BME280_humidity;BME280_pressure;Samples;Min_cycle;Max_cycle;Signal;HPM_P1;HPM_P2
2022/05/30 00:01:39;;;;;;;4.35;2.58;;;;;;;23.94;50.57;99928.92;1794480;79;21049;-76
2022/05/30 00:04:05;;;;;;;4.05;2.45;;;;;;;23.94;50.58;99930.31;1791560;79;22156;-76
2022/05/30 00:06:32;;;;;;;3.02;2.40;;;;;;;23.93;50.58;99919.77;1792072;79;21033;-76
2022/05/30 00:08:58;;;;;;;4.35;2.42;;;;;;;23.93;50.57;99917.00;1792334;79;21013;-76
2022/05/30 00:11:26;;;;;;;3.52;2.27;;;;;;;23.93;50.56;99914.83;1792486;79;21351;-76
2022/05/30 00:13:52;;;;;;;2.67;2.15;;;;;;;23.94;50.57;99912.25;1792090;79;21108;-76
2022/05/30 00:16:20;;;;;;;2.80;2.15;;;;;;;23.94;50.56;99917.81;1798351;79;21017;-76
2022/05/30 00:18:46;;;;;;;2.70;2.47;;;;;;;23.93;50.58;99905.89;1776164;79;21038;-76
2022/05/30 00:21:13;;;;;;;3.55;2.50;;;;;;;23.93;50.58;99913.44;1769678;80;21045;-76
2022/05/30 00:23:40;;;;;;;2.85;2.30;;;;;;;23.93;50.58;99919.77;1769893;80;21604;-77
2022/05/30 00:26:07;;;;;;;3.47;2.60;;;;;;;23.92;50.58;99907.08;1792485;79;21556;-76
2022/05/30 00:28:34;;;;;;;3.87;2.58;;;;;;;23.93;50.58;99902.33;1790779;80;22034;-77
2022/05/30 00:31:00;;;;;;;3.05;2.17;;;;;;;23.92;50.57;99904.30;1771874;79;21049;-76
2022/05/30 00:33:26;;;;;;;3.95;2.52;;;;;;;23.92;50.59;99918.19;1803441;79;21073;-76
2022/05/30 00:35:53;;;;;;;3.45;2.55;;;;;;;23.92;50.58;99912.63;1802964;79;21057;-76
2022/05/30 00:38:19;;;;;;;3.35;2.62;;;;;;;23.93;50.58;99916.22;1796893;79;21536;-76
2022/05/30 00:40:45;;;;;;;3.47;2.27;;;;;;;23.92;50.60;99915.98;1793805;80;21295;-77
2022/05/30 00:43:30;;;;;;;3.05;2.52;;;;;;;23.93;50.59;99916.22;1725998;83;21057;-77
2022/05/30 00:45:59;;;;;;;3.08;2.25;;;;;;;23.92;50.60;99914.60;1726168;82;21065;-76
2022/05/30 00:48:38;;;;;;;3.08;2.35;;;;;;;23.90;50.61;99908.01;1795136;79;20982;-76
2022/05/30 00:51:12;;;;;;;4.20;2.50;;;;;;;23.91;50.60;99910.20;1805509;79;20997;-76
2022/05/30 00:53:40;;;;;;;3.45;2.25;;;;;;;23.91;50.61;99908.81;1794358;79;21101;-76
2022/05/30 00:56:06;;;;;;;2.98;2.47;;;;;;;23.91;50.59;99906.84;1726342;82;21062;-76
2022/05/30 00:58:34;;;;;;;3.77;2.50;;;;;;;23.91;50.63;99919.34;1726481;82;21070;-76
2022/05/30 01:01:00;;;;;;;3.02;2.45;;;;;;;23.90;50.62;99912.75;1741967;79;21121;-77
2022/05/30 01:09:09;;;;;;;3.33;2.62;;;;;;;23.89;50.63;99918.11;1729568;82;21038;-76
2022/05/30 01:11:55;;;;;;;2.67;2.27;;;;;;;23.89;50.62;99927.84;1730575;82;21006;-76
2022/05/30 01:14:24;;;;;;;2.45;2.22;;;;;;;23.88;50.63;99930.38;1726833;82;21033;-76
2022/05/30 01:16:50;;;;;;;2.85;2.52;;;;;;;23.88;50.63;99925.64;1705453;83;21030;-76
2022/05/30 01:19:25;;;;;;;3.12;2.60;;;;;;;23.88;50.66;99917.87;1726707;82;21547;-76
2022/05/30 01:22:15;;;;;;;3.45;2.22;;;;;;;23.87;50.68;99914.30;1795164;79;21505;-78
2022/05/30 01:25:14;;;;;;;3.23;2.53;;;;;;;23.86;50.68;99908.51;1794302;79;20994;-76
2022/05/30 01:28:01;;;;;;;3.33;2.60;;;;;;;23.86;50.67;99923.78;1707736;83;21553;-77
2022/05/30 01:30:27;;;;;;;3.40;2.45;;;;;;;23.85;50.65;99927.72;1707167;83;22333;-76
2022/05/30 01:32:58;;;;;;;2.20;1.80;;;;;;;23.85;50.67;99923.56;1749956;79;21290;-77
2022/05/30 01:35:26;;;;;;;2.85;2.20;;;;;;;23.86;50.69;99928.53;1795111;80;21471;-77
2022/05/30 01:37:52;;;;;;;2.85;2.33;;;;;;;23.85;50.70;99932.50;1794741;80;21081;-76
2022/05/30 01:40:18;;;;;;;3.02;2.50;;;;;;;23.85;50.71;99925.55;1794299;79;21017;-76
2022/05/30 01:42:45;;;;;;;3.25;2.50;;;;;;;23.86;50.71;99920.20;1792737;79;21417;-77
2022/05/30 01:45:11;;;;;;;3.05;2.33;;;;;;;23.86;50.71;99927.14;1792138;79;21536;-76
2022/05/30 01:47:37;;;;;;;2.85;2.58;;;;;;;23.86;50.71;99929.92;1770296;79;21452;-77
2022/05/30 01:50:04;;;;;;;3.05;2.40;;;;;;;23.87;50.73;99931.54;1792547;79;20990;-77
2022/05/30 01:52:36;;;;;;;3.33;2.77;;;;;;;23.87;50.74;99937.91;1792219;79;21593;-76
2022/05/30 01:55:04;;;;;;;3.20;2.10;;;;;;;23.86;50.73;99941.84;1792544;79;21021;-77
2022/05/30 01:57:30;;;;;;;3.47;2.60;;;;;;;23.87;50.73;99945.44;1792548;80;21485;-77
2022/05/30 01:59:57;;;;;;;3.55;2.35;;;;;;;23.86;50.74;99943.23;1792269;80;20977;-76
2022/05/30 02:02:23;;;;;;;3.22;2.62;;;;;;;23.87;50.71;99951.80;1792437;80;21033;-77
2022/05/30 02:04:56;;;;;;;3.10;2.70;;;;;;;23.86;50.71;99941.84;1803469;79;21468;-77
2022/05/30 02:07:22;;;;;;;2.75;2.35;;;;;;;23.87;50.71;99942.08;1849204;76;21065;-76
2022/05/30 02:09:48;;;;;;;3.02;2.70;;;;;;;23.87;50.70;99955.16;1787013;80;21971;-76
2022/05/30 02:12:14;;;;;;;2.85;2.35;;;;;;;23.87;50.73;99949.59;1791367;79;21002;-76
2022/05/30 02:14:42;;;;;;;3.00;2.50;;;;;;;23.87;50.71;99953.77;1792253;79;21765;-76
2022/05/30 02:17:09;;;;;;;3.55;2.60;;;;;;;23.87;50.73;99951.80;1792733;79;21582;-77
2022/05/30 02:19:39;;;;;;;3.02;2.47;;;;;;;23.87;50.71;99946.82;1792588;80;21037;-77
2022/05/30 02:22:07;;;;;;;2.67;2.42;;;;;;;23.87;50.73;99952.38;1792267;80;23209;-76
2022/05/30 02:24:33;;;;;;;2.80;2.40;;;;;;;23.87;50.71;99951.80;1791516;80;21034;-77
2022/05/30 02:26:59;;;;;;;2.83;2.60;;;;;;;23.86;50.71;99956.31;1792811;79;21042;-77
2022/05/30 02:29:25;;;;;;;3.50;2.40;;;;;;;23.85;50.72;99951.34;1792309;79;21624;-76
2022/05/30 02:31:52;;;;;;;3.20;2.65;;;;;;;23.85;50.71;99954.11;1791194;80;21057;-77
2022/05/30 02:37:03;;;;;;;2.60;2.40;;;;;;;23.86;50.71;99950.76;1792218;80;21444;-76
2022/05/30 02:39:30;;;;;;;3.62;2.60;;;;;;;23.85;50.72;99955.50;1767067;79;21123;-76
2022/05/30 02:41:56;;;;;;;2.83;2.27;;;;;;;23.85;50.74;99968.00;1792732;79;21018;-76
2022/05/30 02:44:23;;;;;;;2.95;2.70;;;;;;;23.86;50.72;99966.03;1792293;80;22594;-76
2022/05/30 02:46:53;;;;;;;4.58;3.15;;;;;;;23.86;50.72;99968.81;1792462;79;21086;-77
2022/05/30 02:49:19;;;;;;;3.03;2.73;;;;;;;23.85;50.82;99955.50;1791363;79;21021;-76
2022/05/30 02:51:46;;;;;;;3.55;2.72;;;;;;;23.85;50.82;99955.50;1770062;80;21603;-77
2022/05/30 02:54:13;;;;;;;3.40;2.87;;;;;;;23.85;50.74;99961.67;1792380;80;21038;-77
2022/05/30 02:56:39;;;;;;;3.37;2.60;;;;;;;23.85;50.77;99965.84;1792576;80;21607;-77
2022/05/30 02:59:06;;;;;;;2.62;2.40;;;;;;;23.85;50.76;99967.22;1792608;79;21608;-77
2022/05/30 03:01:33;;;;;;;2.67;2.40;;;;;;;23.85;50.76;99976.95;1792548;80;21001;-77
2022/05/30 03:04:01;;;;;;;3.60;2.25;;;;;;;23.85;50.76;99967.22;1792970;79;21066;-77
2022/05/30 03:06:28;;;;;;;3.65;2.40;;;;;;;23.85;50.76;99972.78;1792634;80;21039;-77
2022/05/30 03:08:56;;;;;;;3.25;2.60;;;;;;;23.84;50.76;99958.08;1792525;80;21021;-77
2022/05/30 03:11:23;;;;;;;3.58;2.70;;;;;;;23.84;50.78;99965.02;1791260;80;21300;-78
2022/05/30 03:13:49;;;;;;;3.58;2.70;;;;;;;23.84;50.77;99969.19;1792345;79;21020;-77
2022/05/30 03:16:15;;;;;;;3.15;2.65;;;;;;;23.84;50.77;99973.36;1792442;80;21061;-77
2022/05/30 03:18:42;;;;;;;3.40;2.37;;;;;;;23.84;50.76;99978.11;1792401;79;21254;-77
2022/05/30 03:21:10;;;;;;;3.30;2.72;;;;;;;23.84;50.77;99980.88;1791075;80;21002;-77
2022/05/30 03:23:37;;;;;;;2.80;2.50;;;;;;;23.85;50.77;99982.50;1792514;79;21152;-77
2022/05/30 03:26:09;;;;;;;3.67;2.70;;;;;;;23.83;50.78;99975.09;1790839;80;21021;-77
2022/05/30 03:28:36;;;;;;;3.02;2.60;;;;;;;23.83;50.79;99981.46;1792131;79;21049;-76
2022/05/30 03:31:02;;;;;;;3.08;2.75;;;;;;;23.85;50.78;99986.67;1791177;80;21045;-77
2022/05/30 03:33:29;;;;;;;3.10;2.80;;;;;;;23.84;50.77;99988.64;1771955;79;20878;-76
2022/05/30 03:35:55;;;;;;;3.08;2.52;;;;;;;23.83;50.79;99989.80;1777010;79;21990;-77
2022/05/30 03:38:22;;;;;;;3.05;2.20;;;;;;;23.84;50.78;99985.86;1793847;80;21092;-77
2022/05/30 03:40:48;;;;;;;3.22;2.62;;;;;;;23.84;50.77;99994.77;1794744;80;21089;-78
2022/05/30 03:43:14;;;;;;;3.10;2.80;;;;;;;23.83;50.79;100002.30;1794759;79;21076;-77
2022/05/30 03:45:42;;;;;;;3.77;2.77;;;;;;;23.84;50.78;100003.11;1794873;79;21562;-77
2022/05/30 03:48:10;;;;;;;4.30;2.90;;;;;;;23.84;50.77;100013.64;1794846;79;21062;-77
2022/05/30 03:50:40;;;;;;;3.22;2.50;;;;;;;23.85;50.78;100015.84;1771491;79;21049;-77
2022/05/30 03:53:06;;;;;;;2.85;2.60;;;;;;;23.84;50.78;100017.80;1791887;79;21132;-77
2022/05/30 03:55:37;;;;;;;3.75;2.83;;;;;;;23.84;50.79;100015.61;1792396;80;20899;-76
2022/05/30 03:58:05;;;;;;;3.05;2.62;;;;;;;23.84;50.79;100018.38;1792164;80;21524;-77
2022/05/30 04:00:32;;;;;;;2.80;2.60;;;;;;;23.81;50.84;100008.78;1791135;79;21467;-77
2022/05/30 04:03:00;;;;;;;5.60;4.28;;;;;;;23.82;50.84;100020.70;1784721;79;21128;-76
2022/05/30 04:05:26;;;;;;;6.67;4.47;;;;;;;23.81;50.87;100015.72;1780904;80;21552;-77
2022/05/30 04:07:58;;;;;;;5.05;4.22;;;;;;;23.79;51.00;100020.03;1781473;79;21067;-76
2022/05/30 04:10:24;;;;;;;9.73;4.62;;;;;;;23.77;51.03;100013.44;1768050;80;21030;-76
2022/05/30 04:12:53;;;;;;;8.28;4.35;;;;;;;23.76;51.08;100021.56;1774743;79;21162;-77
2022/05/30 04:15:21;;;;;;;8.03;4.55;;;;;;;23.78;51.09;100030.91;1859106;77;21432;-77
2022/05/30 04:17:48;;;;;;;6.85;4.60;;;;;;;23.76;51.11;100028.52;1840344;77;21504;-77
2022/05/30 04:20:14;;;;;;;4.45;4.00;;;;;;;23.77;51.13;100031.48;1868306;76;21440;-77
2022/05/30 04:22:40;;;;;;;5.22;4.20;;;;;;;23.76;51.16;100036.84;1840962;77;21011;-77
2022/05/30 04:25:08;;;;;;;7.70;5.00;;;;;;;23.77;51.19;100043.99;1835729;78;22119;-78
2022/05/30 04:27:34;;;;;;;7.05;4.80;;;;;;;23.76;51.27;100047.95;1838746;77;21005;-78
2022/05/30 04:30:00;;;;;;;6.47;5.10;;;;;;;23.74;51.38;100041.94;1837687;77;21072;-77
2022/05/30 04:32:27;;;;;;;7.47;4.60;;;;;;;23.73;51.39;100052.81;1835059;77;22137;-78
2022/05/30 04:34:53;;;;;;;8.80;5.50;;;;;;;23.72;51.44;100055.97;1836460;77;21065;-80
2022/05/30 04:37:19;;;;;;;8.83;4.75;;;;;;;23.71;51.49;100054.34;1828897;76;21275;-78
2022/05/30 04:39:46;;;;;;;9.40;5.17;;;;;;;23.68;51.56;100059.44;1796099;78;21507;-78
2022/05/30 04:42:12;;;;;;;10.55;5.37;;;;;;;23.66;51.60;100054.84;1802345;78;21455;-80
2022/05/30 04:44:38;;;;;;;7.78;4.92;;;;;;;23.64;51.69;100059.92;1832691;76;21056;-78
2022/05/30 04:47:05;;;;;;;7.15;5.20;;;;;;;23.65;51.75;100061.55;1823083;77;21064;-78
2022/05/30 04:49:32;;;;;;;11.48;5.58;;;;;;;23.63;51.85;100061.11;1810602;78;21606;-78
2022/05/30 04:51:58;;;;;;;12.70;5.90;;;;;;;23.63;51.94;100064.47;1808140;78;21095;-77
2022/05/30 04:54:25;;;;;;;13.93;5.83;;;;;;;23.62;52.01;100069.20;1814579;76;21151;-76
2022/05/30 04:56:51;;;;;;;12.25;6.35;;;;;;;23.62;52.12;100069.20;1814386;77;21029;-77
2022/05/30 04:59:18;;;;;;;12.58;5.92;;;;;;;23.62;52.28;100074.77;1793396;78;21036;-78
2022/05/30 05:01:45;;;;;;;17.80;6.12;;;;;;;23.62;52.32;100073.95;1820179;77;21078;-79
2022/05/30 05:04:11;;;;;;;11.70;6.45;;;;;;;23.63;52.40;100076.96;1818580;76;21832;-76
2022/05/30 05:06:39;;;;;;;11.83;6.20;;;;;;;23.64;52.47;100082.72;1818519;76;21041;-79
2022/05/30 05:09:19;;;;;;;14.65;6.42;;;;;;;23.63;52.52;100093.63;1809525;77;21528;-80
2022/05/30 05:11:46;;;;;;;21.55;8.85;;;;;;;23.62;52.56;100098.94;1810915;77;21038;-79
2022/05/30 05:14:19;;;;;;;13.95;8.70;;;;;;;23.61;52.67;100112.02;1798403;77;22062;-79
2022/05/30 05:16:46;;;;;;;19.85;12.82;;;;;;;23.60;52.74;100107.62;1826878;76;21084;-79
2022/05/30 05:19:12;;;;;;;18.37;10.82;;;;;;;23.60;52.82;100109.58;1808552;77;21012;-79
2022/05/30 05:21:40;;;;;;;25.40;11.57;;;;;;;23.61;52.85;100113.98;1793681;78;21093;-80
2022/05/30 05:24:07;;;;;;;15.88;10.28;;;;;;;23.62;52.87;100112.83;1831244;77;21098;-80
2022/05/30 05:26:34;;;;;;;14.10;8.43;;;;;;;23.63;52.90;100115.84;1827017;78;20959;-79
2022/05/30 05:29:00;;;;;;;18.57;10.32;;;;;;;23.62;52.90;100111.44;1826269;78;21027;-80
2022/05/30 05:31:34;;;;;;;11.80;8.28;;;;;;;23.60;52.94;100102.06;1816972;76;21459;-80
2022/05/30 05:33:59;;;;;;;13.85;8.15;;;;;;;23.60;52.97;100100.67;1815003;77;21617;-81
2022/05/30 05:36:31;;;;;;;12.53;8.23;;;;;;;23.61;52.93;100106.47;1774762;79;21028;-80
2022/05/30 05:38:57;;;;;;;12.00;7.95;;;;;;;23.62;52.92;100112.25;1820627;76;21074;-80
2022/05/30 05:41:24;;;;;;;14.68;8.00;;;;;;;23.63;52.88;100122.78;1814552;76;21122;-79
2022/05/30 05:43:53;;;;;;;18.87;12.23;;;;;;;23.63;52.85;100131.92;1840445;76;21370;-79
2022/05/30 05:46:22;;;;;;;13.40;9.13;;;;;;;23.62;52.86;100134.47;1835529;76;21048;-86
2022/05/30 05:48:49;;;;;;;10.00;6.65;;;;;;;23.62;52.83;100143.38;1812552;77;21036;-81
2022/05/30 05:51:17;;;;;;;8.58;5.78;;;;;;;23.56;52.86;100144.20;1815979;76;21688;-80
2022/05/30 05:53:48;;;;;;;9.70;6.80;;;;;;;23.50;52.90;100147.02;1829328;76;21088;-83
2022/05/30 05:56:22;;;;;;;10.88;6.62;;;;;;;23.46;52.99;100141.94;1837943;76;21744;-85
2022/05/30 05:58:49;;;;;;;20.52;6.97;;;;;;;23.45;53.10;100147.27;1826279;76;21088;-81
2022/05/30 06:01:22;;;;;;;8.80;6.25;;;;;;;23.46;53.24;100152.23;1839076;76;21040;-80
2022/05/30 06:03:53;;;;;;;12.75;6.60;;;;;;;23.46;53.27;100153.05;1812468;76;21868;-79
2022/05/30 06:06:20;;;;;;;11.38;6.45;;;;;;;23.44;53.35;100144.25;1834488;76;21084;-82
2022/05/30 06:08:56;;;;;;;17.77;6.65;;;;;;;23.43;53.41;100155.13;1821227;76;21596;-80
2022/05/30 06:11:24;;;;;;;18.97;7.23;;;;;;;23.44;53.42;100160.09;1827470;75;21130;-81
2022/05/30 06:13:50;;;;;;;15.00;6.90;;;;;;;23.47;53.44;100156.61;1766522;79;21066;-82
2022/05/30 06:16:20;;;;;;;9.65;6.60;;;;;;;23.48;53.51;100150.71;1787338;77;21882;-81
2022/05/30 06:18:47;;;;;;;17.57;7.63;;;;;;;23.49;53.51;100153.72;1786009;78;21057;-78
2022/05/30 06:21:14;;;;;;;18.20;8.28;;;;;;;23.49;53.55;100159.28;1771596;79;21348;-79
2022/05/30 06:23:40;;;;;;;18.82;8.15;;;;;;;23.52;53.59;100161.34;1784187;77;21024;-77
2022/05/30 06:26:08;;;;;;;18.15;7.97;;;;;;;23.54;53.59;100152.66;1763182;79;21090;-78
2022/05/30 06:28:38;;;;;;;13.00;7.08;;;;;;;23.54;53.60;100164.59;1766701;79;21241;-77
2022/05/30 06:31:17;;;;;;;11.12;6.92;;;;;;;23.54;53.60;100160.42;1754581;79;21170;-79
2022/05/30 06:33:45;;;;;;;12.65;7.37;;;;;;;23.56;53.61;100164.21;1749212;79;21525;-86
2022/05/30 06:36:14;;;;;;;13.53;7.80;;;;;;;23.56;53.59;100170.58;1765781;80;21047;-81
2022/05/30 06:38:41;;;;;;;21.37;7.10;;;;;;;23.58;53.59;100166.88;1783492;79;21606;-80
2022/05/30 06:41:15;;;;;;;16.93;8.35;;;;;;;23.59;53.64;100161.53;1750207;80;21569;-79
2022/05/30 06:43:51;;;;;;;21.05;9.60;;;;;;;23.61;53.67;100173.11;1822913;76;21045;-78
2022/05/30 06:46:17;;;;;;;12.75;7.00;;;;;;;23.59;53.68;100169.08;1824005;76;21302;-80
2022/05/30 06:48:45;;;;;;;13.58;7.50;;;;;;;23.58;53.68;100177.98;1822434;76;21168;-79
2022/05/30 06:51:16;;;;;;;15.03;7.45;;;;;;;23.56;53.74;100169.77;1788395;77;21071;-79
2022/05/30 06:53:45;;;;;;;16.50;8.73;;;;;;;23.54;53.78;100167.36;1826716;75;21200;-81
2022/05/30 06:56:17;;;;;;;15.38;8.70;;;;;;;23.54;53.92;100162.39;1826139;76;22370;-81
2022/05/30 06:58:45;;;;;;;18.82;8.25;;;;;;;23.53;53.99;100160.19;1821964;76;21068;-77
2022/05/30 07:01:12;;;;;;;15.55;8.05;;;;;;;23.54;54.05;100167.94;1827848;76;21084;-79
2022/05/30 07:03:38;;;;;;;21.05;8.05;;;;;;;23.54;54.15;100169.33;1828543;75;21029;-78
2022/05/30 07:06:10;;;;;;;13.62;8.03;;;;;;;23.55;54.25;100166.78;1814053;76;21017;-78
2022/05/30 07:08:37;;;;;;;23.95;8.28;;;;;;;23.57;54.47;100172.20;1819061;76;21024;-78
2022/05/30 07:11:03;;;;;;;20.35;9.10;;;;;;;23.59;54.51;100170.47;1826944;76;21109;-81
2022/05/30 07:13:30;;;;;;;25.82;9.55;;;;;;;23.61;54.55;100176.47;1836309;76;21063;-79
2022/05/30 07:15:57;;;;;;;21.65;7.78;;;;;;;23.63;54.67;100192.20;1761480;79;21127;-79
2022/05/30 07:18:23;;;;;;;15.68;7.83;;;;;;;23.64;54.62;100185.47;1815897;76;22550;-80
2022/05/30 07:21:00;;;;;;;13.08;7.50;;;;;;;23.65;54.55;100192.07;1828302;76;21040;-79
2022/05/30 07:23:27;;;;;;;19.12;8.15;;;;;;;23.66;54.47;100192.87;1837483;76;20901;-79
2022/05/30 07:26:01;;;;;;;15.03;7.35;;;;;;;23.66;54.45;100199.25;1830428;77;20937;-80
2022/05/30 07:28:31;;;;;;;8.95;6.72;;;;;;;23.68;54.37;100196.09;1834059;76;21024;-79
2022/05/30 07:31:09;;;;;;;15.33;7.80;;;;;;;23.69;54.31;100203.28;1843869;76;21247;-80
2022/05/30 07:33:44;;;;;;;12.82;7.17;;;;;;;23.71;54.38;100207.91;1840036;76;21259;-78
2022/05/30 07:36:14;;;;;;;13.85;7.62;;;;;;;23.73;54.44;100214.48;1838289;76;21569;-79
2022/05/30 07:38:41;;;;;;;16.52;8.73;;;;;;;23.74;54.36;100220.27;1757554;79;21594;-79
2022/05/30 07:41:08;;;;;;;11.73;6.53;;;;;;;23.75;54.31;100221.89;1790088;78;21517;-80
2022/05/30 07:43:35;;;;;;;17.25;7.97;;;;;;;23.75;54.24;100227.45;1751432;80;21806;-80
2022/05/30 07:46:04;;;;;;;14.30;8.18;;;;;;;23.76;54.17;100231.86;1736706;81;21018;-79
2022/05/30 07:48:30;;;;;;;17.48;8.73;;;;;;;23.75;54.11;100235.20;1750762;79;21640;-81
2022/05/30 07:50:57;;;;;;;26.70;9.35;;;;;;;23.75;54.15;100237.98;1748001;79;21048;-81
2022/05/30 07:53:26;;;;;;;23.65;9.63;;;;;;;23.74;54.28;100244.70;1755894;81;21076;-84
2022/05/30 07:55:53;;;;;;;27.30;9.50;;;;;;;23.75;54.42;100246.32;1760193;79;21167;-80
2022/05/30 07:58:20;;;;;;;19.77;9.63;;;;;;;23.75;54.59;100246.89;1746037;81;21101;-81
2022/05/30 08:00:50;;;;;;;23.62;9.33;;;;;;;23.76;54.67;100253.50;1754409;79;21146;-83
2022/05/30 08:03:16;;;;;;;28.93;9.47;;;;;;;23.78;54.90;100255.91;1753240;80;21123;-79
2022/05/30 08:05:47;;;;;;;16.65;8.88;;;;;;;23.78;55.07;100256.72;1749387;79;21076;-78
2022/05/30 08:08:16;;;;;;;;;;;;;;;23.78;55.14;100258.11;1753129;81;21483;-79
2022/05/30 08:10:42;;;;;;;16.65;8.28;;;;;;;23.79;55.18;100267.25;1753555;81;20221;-80
2022/05/30 08:13:08;;;;;;;16.00;8.05;;;;;;;23.78;55.02;100269.80;1747460;81;21131;-79
2022/05/30 08:15:35;;;;;;;15.75;7.75;;;;;;;23.78;54.94;100272.57;1732844;80;21075;-81
2022/05/30 08:18:02;;;;;;;20.88;8.83;;;;;;;23.78;54.81;100278.13;1745795;79;21119;-80
2022/05/30 08:20:31;;;;;;;14.95;7.80;;;;;;;23.77;54.79;100270.38;1750453;79;22057;-78
2022/05/30 08:22:59;;;;;;;18.73;8.03;;;;;;;23.79;54.73;100274.20;1723449;79;21100;-81
2022/05/30 08:25:26;;;;;;;21.37;9.40;;;;;;;23.80;54.70;100279.41;1747490;78;21112;-78
2022/05/30 08:27:52;;;;;;;22.25;9.75;;;;;;;23.80;54.65;100282.19;1735744;80;21099;-80
2022/05/30 08:30:19;;;;;;;19.12;10.10;;;;;;;23.80;54.63;100282.77;1744883;79;21072;-84
2022/05/30 08:32:49;;;;;;;17.60;10.25;;;;;;;23.80;54.59;100289.13;1739849;80;21270;-85
2022/05/30 08:35:18;;;;;;;17.00;9.77;;;;;;;23.79;54.59;100286.70;1748181;80;21124;-84
2022/05/30 08:37:46;;;;;;;15.15;9.30;;;;;;;23.80;54.54;100293.88;1735582;80;21559;-83
2022/05/30 08:43:42;;;;;;;14.83;9.50;;;;;;;23.80;54.51;100303.02;1810129;76;21064;-84
2022/05/30 08:46:37;;;;;;;20.72;11.12;;;;;;;23.79;54.57;100306.95;1796311;78;22602;-84
2022/05/30 08:49:22;;;;;;;33.92;12.75;;;;;;;23.80;54.66;100315.52;1815158;76;21038;-84
2022/05/30 08:52:05;;;;;;;20.95;12.28;;;;;;;23.78;54.80;100307.30;1804644;77;21735;-82
2022/05/30 08:54:49;;;;;;;15.72;9.68;;;;;;;23.81;55.17;100307.39;1806546;76;21005;-82
2022/05/30 08:57:36;;;;;;;22.62;9.43;;;;;;;23.83;55.29;100305.67;1808000;77;21112;-84
2022/05/30 09:00:17;;;;;;;12.33;7.92;;;;;;;23.82;55.27;100306.24;1825931;76;21142;-84
2022/05/30 09:02:51;;;;;;;17.82;7.33;;;;;;;23.81;55.26;100307.97;1849120;76;21161;-83
2022/05/30 09:05:29;;;;;;;14.83;8.35;;;;;;;23.81;55.26;100307.97;1853791;76;21022;-89
2022/05/30 09:08:00;;;;;;;18.00;8.45;;;;;;;23.82;55.23;100312.38;1840739;75;21033;-85
2022/05/30 09:10:50;;;;;;;23.70;8.28;;;;;;;23.81;55.19;100312.95;1846132;75;21074;-83
2022/05/30 09:13:27;;;;;;;21.12;9.33;;;;;;;23.81;55.04;100309.36;1836671;75;21112;-82
2022/05/30 09:16:21;;;;;;;11.22;8.90;;;;;;;23.79;54.83;100309.73;1835503;75;21471;-83
2022/05/30 09:18:53;;;;;;;13.53;9.35;;;;;;;23.78;54.58;100307.30;1846107;76;21044;-84
2022/05/30 09:21:22;;;;;;;10.03;8.30;;;;;;;23.76;54.41;100305.46;1819070;76;21397;-85
2022/05/30 09:23:48;;;;;;;11.08;8.18;;;;;;;23.77;54.26;100311.22;1813097;77;21036;-83
2022/05/30 09:26:22;;;;;;;11.63;7.72;;;;;;;23.77;54.14;100316.20;1821321;76;22140;-84
2022/05/30 09:28:51;;;;;;;13.00;7.87;;;;;;;23.75;53.98;100311.59;1775218;79;21313;-83
2022/05/30 09:31:26;;;;;;;11.73;7.92;;;;;;;23.76;53.88;100310.44;1766531;79;21090;-82
2022/05/30 09:33:58;;;;;;;10.70;7.33;;;;;;;23.76;53.77;100317.97;1787508;78;21059;-83
2022/05/30 09:36:30;;;;;;;7.75;6.47;;;;;;;23.75;53.63;100319.92;1751950;80;21045;-84
2022/05/30 09:39:09;;;;;;;12.30;6.97;;;;;;;23.75;53.53;100319.92;1752900;79;21102;-85
2022/05/30 09:41:46;;;;;;;10.70;7.05;;;;;;;23.75;53.38;100319.11;1745175;79;21080;-84
2022/05/30 09:44:32;;;;;;;7.67;6.50;;;;;;;23.74;53.32;100321.08;1744725;80;21094;-85
2022/05/30 09:47:15;;;;;;;9.43;7.08;;;;;;;23.74;53.20;100325.82;1730679;80;21054;-86
2022/05/30 09:49:52;;;;;;;9.08;7.05;;;;;;;23.74;53.19;100327.21;1785336;79;21057;-84
2022/05/30 09:52:36;;;;;;;11.78;6.95;;;;;;;23.73;53.17;100330.56;1788813;79;21703;-81
2022/05/30 09:55:30;;;;;;;13.08;6.95;;;;;;;23.73;53.25;100331.14;1770370;79;21093;-83
2022/05/30 09:57:58;;;;;;;13.43;7.12;;;;;;;23.77;53.57;100330.67;1823666;76;21103;-85
2022/05/30 10:00:36;;;;;;;18.32;7.55;;;;;;;23.81;53.71;100330.20;1804185;77;21681;-82
2022/05/30 10:03:14;;;;;;;19.62;7.03;;;;;;;23.83;53.76;100330.09;1835831;76;21134;-85
2022/05/30 10:05:42;;;;;;;14.60;7.20;;;;;;;23.85;53.84;100337.48;1829418;76;21169;-81
2022/05/30 10:08:27;;;;;;;17.52;7.33;;;;;;;23.88;53.87;100337.38;1749937;80;21049;-82
2022/05/30 10:10:56;;;;;;;11.88;7.05;;;;;;;23.88;53.90;100332.63;1776631;79;21702;-81
2022/05/30 10:13:40;;;;;;;10.28;6.28;;;;;;;23.88;53.85;100330.43;1743882;80;21054;-81
2022/05/30 10:16:12;;;;;;;15.65;7.03;;;;;;;23.89;53.85;100320.94;1753903;80;20891;-80
2022/05/30 10:18:55;;;;;;;13.60;7.08;;;;;;;23.87;53.80;100327.42;1781960;79;21230;-81
2022/05/30 10:30:44;;;;;;;10.50;7.20;;;;;;;23.86;53.53;100324.41;1806083;77;21606;-83
2022/05/30 10:33:22;;;;;;;9.83;7.80;;;;;;;23.86;53.48;100316.06;1751924;79;21301;-80
2022/05/30 10:36:17;;;;;;;13.70;8.10;;;;;;;23.86;53.49;100308.55;1764168;80;21194;-81
2022/05/30 10:39:33;;;;;;;11.55;7.28;;;;;;;23.86;53.47;100311.90;1775293;80;21079;-80
2022/05/30 10:42:05;;;;;;;9.58;6.25;;;;;;;23.85;53.43;100310.30;1758360;80;21544;-80
2022/05/30 10:44:46;;;;;;;13.78;7.35;;;;;;;23.86;53.38;100314.67;1767921;79;21572;-82
2022/05/30 10:47:24;;;;;;;11.88;7.75;;;;;;;23.87;53.31;100317.69;1763951;79;22518;-80
2022/05/30 10:49:58;;;;;;;9.18;7.10;;;;;;;23.86;53.29;100315.48;1766113;80;21088;-80
2022/05/30 10:52:29;;;;;;;19.10;7.50;;;;;;;23.86;53.27;100317.45;1751520;80;21058;-81
2022/05/30 10:55:10;;;;;;;13.53;7.53;;;;;;;23.86;53.41;100316.06;1777523;79;21195;-81
2022/05/30 10:57:47;;;;;;;16.07;7.08;;;;;;;23.86;53.69;100316.88;1761248;80;21161;-80
2022/05/30 11:00:19;;;;;;;16.00;7.08;;;;;;;23.89;53.90;100316.17;1793304;77;21926;-81
2022/05/30 11:03:02;;;;;;;16.55;6.92;;;;;;;23.92;54.09;100315.48;1822212;76;20965;-80
2022/05/30 11:05:49;;;;;;;18.30;7.25;;;;;;;23.93;54.13;100318.47;1812412;77;21075;-81
2022/05/30 11:08:46;;;;;;;18.00;7.60;;;;;;;23.94;54.31;100314.53;1833585;77;21194;-80
2022/05/30 11:11:44;;;;;;;16.60;7.55;;;;;;;23.94;54.31;100314.53;1828104;77;21489;-79
2022/05/30 11:14:34;;;;;;;16.40;8.40;;;;;;;23.94;54.25;100311.76;1810242;77;22034;-84
2022/05/30 11:17:32;;;;;;;12.27;7.43;;;;;;;23.94;54.24;100314.53;1759531;80;21077;-81
2022/05/30 11:20:14;;;;;;;14.05;7.50;;;;;;;23.94;54.08;100314.53;1776279;78;21055;-79
2022/05/30 11:22:50;;;;;;;8.75;6.60;;;;;;;23.93;53.93;100313.52;1769104;80;21090;-79
2022/05/30 11:25:21;;;;;;;14.38;7.62;;;;;;;23.93;53.79;100314.91;1795502;78;21848;-79
2022/05/30 11:28:11;;;;;;;11.12;7.65;;;;;;;23.93;53.64;100320.47;1762156;79;23360;-82
2022/05/30 11:30:51;;;;;;;9.58;7.15;;;;;;;23.93;53.51;100317.69;1731745;78;21079;-81
2022/05/30 11:33:40;;;;;;;11.33;7.95;;;;;;;23.92;53.39;100318.84;1767146;80;21101;-82
2022/05/30 11:36:27;;;;;;;15.15;8.50;;;;;;;23.91;53.34;100313.86;1822627;76;21169;-82
2022/05/30 11:39:38;;;;;;;11.33;7.85;;;;;;;23.91;53.20;100314.44;1825127;76;21162;-83
2022/05/30 11:42:24;;;;;;;12.85;8.83;;;;;;;23.90;53.12;100315.02;1835877;76;22382;-83
2022/05/30 11:44:55;;;;;;;10.88;8.15;;;;;;;23.91;53.04;100313.05;1843324;76;21018;-80
2022/05/30 11:47:49;;;;;;;10.05;8.65;;;;;;;23.92;53.02;100316.06;1813600;76;21621;-83
2022/05/30 11:50:39;;;;;;;11.00;9.48;;;;;;;23.93;52.94;100314.91;1837044;76;21029;-82
2022/05/30 11:53:20;;;;;;;16.80;10.43;;;;;;;23.93;52.88;100315.69;1830483;77;21032;-82
2022/05/30 11:55:55;;;;;;;21.65;9.55;;;;;;;23.93;52.98;100305.19;1840643;76;21004;-82
2022/05/30 11:58:51;;;;;;;19.85;9.68;;;;;;;23.95;53.59;100308.41;1840450;76;21397;-82
2022/05/30 12:01:18;;;;;;;10.38;7.62;;;;;;;23.98;53.99;100304.91;1806247;76;21022;-81
2022/05/30 12:04:20;;;;;;;18.85;8.38;;;;;;;24.02;54.26;100297.48;1763385;80;21103;-81
2022/05/30 12:06:58;;;;;;;13.70;8.43;;;;;;;24.04;54.36;100303.52;1761229;80;21623;-80